aviador You're here:

KSTF Decoded Metar

in
Report Time2018-06-24 20:15:00
UTC Time2018-06-24 20:18:31
Flight Rules vfr VFR
WindCalm
Visibility9999 m
Phenomena:N/A
Clouds:Scattered 050 Hf
Scattered 065 Hf
Scattered 075 Hf
Expected CloudBase > 4,000 ft AGL from Temp-Dew spread
CeilingNone
Temp32°C
Dew Point22°C (55% RH)
Heat Index35.6°C
QNH1016 hPa
Raw Report
KSTF 242015Z AUTO 00000KT 10SM SCT050 SCT065 SCT075 32/22 A3000
RMK AO2=

Extra information for KSTF:More info

Social comments